Time;durP1;ratioP1;P1;durP2;ratioP2;P2;SDS_P1;SDS_P2;PMS_P1;PMS_P2;Temp;Humidity;BMP_temperature;BMP_pressure;BME280_temperature;BME280_humidity;BME280_pressure;Samples;Min_cycle;Max_cycle;Signal;HPM_P1;HPM_P2
2021/12/15 00:01:34;;;;;;;;;61.50;47.25;;;;;;;;5017239;28;45625;-66
2021/12/15 00:03:59;;;;;;;;;56.25;42.50;;;;;;;;5022613;28;45385;-66
2021/12/15 00:06:25;;;;;;;;;67.00;50.75;;;;;;;;5023539;28;45532;-66
2021/12/15 00:08:51;;;;;;;;;58.75;44.50;;;;;;;;5022108;28;45315;-66
2021/12/15 00:11:17;;;;;;;;;54.00;41.50;;;;;;;;5023269;28;45385;-68
2021/12/15 00:13:43;;;;;;;;;52.50;41.50;;;;;;;;5003222;28;45349;-66
2021/12/15 00:16:09;;;;;;;;;44.25;37.00;;;;;;;;5023227;28;45304;-65
2021/12/15 00:18:34;;;;;;;;;55.00;41.00;;;;;;;;5021956;28;46208;-65
2021/12/15 00:21:00;;;;;;;;;41.25;35.50;;;;;;;;5022591;28;45284;-66
2021/12/15 00:23:26;;;;;;;;;54.75;42.50;;;;;;;;5021854;28;45244;-66
2021/12/15 00:25:51;;;;;;;;;47.00;39.50;;;;;;;;5022877;28;45252;-66
2021/12/15 00:28:17;;;;;;;;;44.00;36.50;;;;;;;;5008288;28;47116;-66
2021/12/15 00:30:42;;;;;;;;;51.25;39.75;;;;;;;;5022639;28;45410;-66
2021/12/15 00:33:08;;;;;;;;;53.50;42.25;;;;;;;;5022647;28;45335;-66
2021/12/15 00:35:35;;;;;;;;;58.25;45.25;;;;;;;;5022824;28;45669;-66
2021/12/15 00:38:00;;;;;;;;;54.00;42.50;;;;;;;;5004693;28;48167;-66
2021/12/15 00:40:25;;;;;;;;;45.00;36.50;;;;;;;;5002390;28;45396;-66
2021/12/15 00:42:51;;;;;;;;;47.50;39.75;;;;;;;;5023246;28;45395;-66
2021/12/15 00:45:17;;;;;;;;;52.00;41.25;;;;;;;;5022087;28;45621;-66
2021/12/15 00:47:44;;;;;;;;;51.75;37.75;;;;;;;;5022757;28;46718;-66
2021/12/15 00:50:10;;;;;;;;;73.50;53.50;;;;;;;;5021639;28;45418;-66
2021/12/15 00:52:37;;;;;;;;;64.75;51.25;;;;;;;;5021251;28;45242;-66
2021/12/15 00:55:04;;;;;;;;;64.50;49.25;;;;;;;;4996147;28;45634;-66
2021/12/15 00:57:29;;;;;;;;;65.50;49.75;;;;;;;;5022433;28;45336;-66
2021/12/15 00:59:54;;;;;;;;;73.75;54.00;;;;;;;;5021481;28;45401;-66
2021/12/15 01:02:20;;;;;;;;;66.25;49.75;;;;;;;;5022688;28;45427;-66
2021/12/15 01:04:45;;;;;;;;;56.25;40.75;;;;;;;;5001953;28;45474;-66
2021/12/15 01:07:12;;;;;;;;;82.75;61.00;;;;;;;;5025942;28;45331;-66
2021/12/15 01:09:47;;;;;;;;;75.50;55.00;;;;;;;;5023550;28;45904;-66
2021/12/15 01:12:36;;;;;;;;;77.50;55.00;;;;;;;;5026047;28;45395;-66
2021/12/15 01:20:37;;;;;;;;;79.25;55.00;;;;;;;;5023644;28;45422;-66
2021/12/15 01:23:06;;;;;;;;;67.25;52.00;;;;;;;;5025461;28;45285;-66
2021/12/15 01:25:34;;;;;;;;;50.50;37.00;;;;;;;;5025726;28;45576;-67
2021/12/15 01:27:59;;;;;;;;;78.75;56.50;;;;;;;;5025303;28;45406;-66
2021/12/15 01:30:26;;;;;;;;;66.25;47.25;;;;;;;;5002024;28;45448;-66
2021/12/15 01:32:51;;;;;;;;;63.50;44.75;;;;;;;;5025634;28;45309;-67
2021/12/15 01:35:17;;;;;;;;;54.25;39.75;;;;;;;;5025001;28;45379;-66
2021/12/15 01:37:43;;;;;;;;;46.75;38.00;;;;;;;;5025468;28;46427;-67
2021/12/15 01:40:13;;;;;;;;;56.00;43.25;;;;;;;;5024549;28;45415;-67
2021/12/15 01:42:38;;;;;;;;;58.00;44.75;;;;;;;;5025706;28;45326;-66
2021/12/15 01:47:57;;;;;;;;;55.25;45.75;;;;;;;;5013169;28;45526;-67
2021/12/15 01:50:23;;;;;;;;;54.75;44.25;;;;;;;;5024252;28;45503;-67
2021/12/15 01:52:48;;;;;;;;;48.50;39.00;;;;;;;;5025333;28;45292;-66
2021/12/15 01:55:16;;;;;;;;;82.50;62.00;;;;;;;;5020279;28;45610;-67
2021/12/15 01:57:42;;;;;;;;;78.50;55.75;;;;;;;;5025387;28;45488;-66
2021/12/15 02:00:11;;;;;;;;;80.50;61.50;;;;;;;;5024166;28;45387;-66
2021/12/15 02:02:36;;;;;;;;;69.25;53.50;;;;;;;;5025415;28;45678;-66
2021/12/15 02:05:02;;;;;;;;;78.75;57.50;;;;;;;;5005806;28;45819;-67
2021/12/15 02:07:28;;;;;;;;;63.25;44.75;;;;;;;;5025184;28;46413;-66
2021/12/15 02:12:22;;;;;;;;;115.75;88.25;;;;;;;;5025356;28;45589;-66
2021/12/15 02:14:48;;;;;;;;;76.75;58.50;;;;;;;;5024404;28;45642;-67
2021/12/15 02:17:13;;;;;;;;;75.00;53.00;;;;;;;;5023912;28;45414;-66
2021/12/15 02:19:38;;;;;;;;;160.50;125.50;;;;;;;;5023847;28;45233;-67
2021/12/15 02:22:04;;;;;;;;;114.00;82.50;;;;;;;;5007181;28;45393;-67
2021/12/15 02:24:29;;;;;;;;;107.75;79.00;;;;;;;;5023992;28;45230;-67
2021/12/15 02:26:59;;;;;;;;;68.50;52.25;;;;;;;;5024738;28;45415;-66
2021/12/15 02:29:26;;;;;;;;;68.50;51.00;;;;;;;;5023924;28;45324;-67
2021/12/15 02:32:04;;;;;;;;;77.00;56.00;;;;;;;;5024787;28;45458;-66
2021/12/15 02:39:40;;;;;;;;;61.25;45.75;;;;;;;;5023447;28;45281;-66
2021/12/15 02:42:06;;;;;;;;;60.00;45.00;;;;;;;;5024571;28;45577;-67
2021/12/15 02:44:31;;;;;;;;;54.25;40.00;;;;;;;;5024114;28;45375;-67
2021/12/15 02:46:56;;;;;;;;;90.00;66.50;;;;;;;;5003872;28;48119;-67
2021/12/15 02:49:26;;;;;;;;;51.00;39.50;;;;;;;;5023822;28;45509;-67
2021/12/15 02:51:52;;;;;;;;;64.25;46.25;;;;;;;;5024527;28;45399;-66
2021/12/15 02:54:18;;;;;;;;;62.50;45.50;;;;;;;;5000137;28;45330;-67
2021/12/15 02:56:44;;;;;;;;;55.50;41.25;;;;;;;;5011766;28;47806;-67
2021/12/15 02:59:12;;;;;;;;;110.75;79.75;;;;;;;;5022240;28;45233;-66
2021/12/15 03:02:10;;;;;;;;;65.50;49.00;;;;;;;;5018915;28;45512;-66
2021/12/15 03:07:12;;;;;;;;;77.25;55.25;;;;;;;;5023948;28;46086;-67
2021/12/15 03:15:29;;;;;;;;;46.25;39.50;;;;;;;;5023357;28;45424;-66
2021/12/15 03:17:56;;;;;;;;;45.50;39.25;;;;;;;;5023791;28;45608;-67
2021/12/15 03:20:22;;;;;;;;;60.25;44.50;;;;;;;;5022864;28;45566;-67
2021/12/15 03:22:49;;;;;;;;;49.75;37.75;;;;;;;;5023577;28;46154;-67
2021/12/15 03:25:15;;;;;;;;;88.00;69.25;;;;;;;;5023524;28;45486;-67
2021/12/15 03:33:29;;;;;;;;;49.25;37.25;;;;;;;;5023794;28;45493;-66
2021/12/15 03:36:10;;;;;;;;;52.25;42.00;;;;;;;;5023615;28;45522;-66
2021/12/15 03:38:36;;;;;;;;;48.25;35.75;;;;;;;;5022633;28;45569;-67
2021/12/15 03:41:06;;;;;;;;;43.00;35.25;;;;;;;;5023240;28;45284;-66
2021/12/15 03:43:33;;;;;;;;;40.33;33.67;;;;;;;;5023089;28;45389;-66
2021/12/15 03:46:00;;;;;;;;;61.00;43.75;;;;;;;;5023724;28;45288;-67
2021/12/15 03:48:27;;;;;;;;;45.50;37.00;;;;;;;;5022585;28;47201;-67
2021/12/15 03:50:53;;;;;;;;;47.75;36.75;;;;;;;;5023100;28;46164;-67
2021/12/15 03:53:19;;;;;;;;;41.50;33.25;;;;;;;;5022602;28;45324;-67
2021/12/15 03:55:45;;;;;;;;;36.00;29.00;;;;;;;;5021117;28;45497;-67
2021/12/15 03:58:12;;;;;;;;;42.00;32.25;;;;;;;;5021576;28;47177;-67
2021/12/15 04:00:40;;;;;;;;;36.00;32.50;;;;;;;;5021757;28;45252;-66
2021/12/15 04:03:05;;;;;;;;;46.00;39.25;;;;;;;;5023442;28;45391;-66
2021/12/15 04:05:30;;;;;;;;;41.00;34.00;;;;;;;;5022572;28;45286;-67
2021/12/15 04:07:57;;;;;;;;;42.67;32.33;;;;;;;;5022873;28;46589;-67
2021/12/15 04:10:24;;;;;;;;;36.33;30.33;;;;;;;;5017950;28;45950;-66
2021/12/15 04:12:49;;;;;;;;;39.50;34.25;;;;;;;;5012697;28;45357;-67
2021/12/15 04:17:50;;;;;;;;;38.33;31.00;;;;;;;;5019835;28;46241;-67
2021/12/15 04:20:16;;;;;;;;;32.25;31.75;;;;;;;;5019653;28;45371;-67
2021/12/15 04:22:42;;;;;;;;;32.33;28.33;;;;;;;;5022275;28;45397;-67
2021/12/15 04:25:12;;;;;;;;;30.75;27.25;;;;;;;;5022383;28;45397;-68
2021/12/15 04:27:38;;;;;;;;;60.75;44.00;;;;;;;;5022670;28;46747;-68
2021/12/15 04:30:08;;;;;;;;;32.33;29.33;;;;;;;;5021886;28;45323;-67
2021/12/15 04:32:39;;;;;;;;;40.33;33.00;;;;;;;;5023080;28;45238;-67
2021/12/15 04:35:04;;;;;;;;;31.00;28.00;;;;;;;;5020197;28;45545;-67
2021/12/15 04:37:30;;;;;;;;;37.67;29.33;;;;;;;;5020723;28;45311;-67
2021/12/15 04:39:55;;;;;;;;;34.67;30.33;;;;;;;;5020029;28;45387;-67
2021/12/15 04:42:22;;;;;;;;;33.00;29.67;;;;;;;;5022903;28;45506;-67
2021/12/15 04:44:49;;;;;;;;;41.00;35.50;;;;;;;;4998722;28;45442;-67
2021/12/15 04:47:14;;;;;;;;;36.67;26.67;;;;;;;;5019280;28;45732;-67
2021/12/15 04:49:46;;;;;;;;;27.33;24.00;;;;;;;;5021897;28;45380;-68
2021/12/15 04:52:12;;;;;;;;;29.00;25.00;;;;;;;;5022629;28;45384;-67
2021/12/15 04:54:37;;;;;;;;;32.00;32.00;;;;;;;;5004004;28;45535;-67
2021/12/15 04:57:03;;;;;;;;;38.33;30.33;;;;;;;;5022202;28;46314;-67
2021/12/15 04:59:28;;;;;;;;;33.00;24.00;;;;;;;;5021665;28;45405;-68
2021/12/15 05:01:53;;;;;;;;;34.67;29.00;;;;;;;;5022507;28;45499;-68
2021/12/15 05:04:19;;;;;;;;;26.33;23.33;;;;;;;;5022093;28;45642;-68
2021/12/15 05:06:45;;;;;;;;;31.33;26.00;;;;;;;;5022454;28;45620;-68
2021/12/15 05:09:10;;;;;;;;;35.67;27.33;;;;;;;;4998261;28;45412;-67
2021/12/15 05:11:36;;;;;;;;;33.33;26.00;;;;;;;;5021807;28;45325;-67
2021/12/15 05:14:02;;;;;;;;;23.00;19.00;;;;;;;;5021883;28;45500;-68
2021/12/15 05:16:27;;;;;;;;;31.00;27.00;;;;;;;;5003769;28;46941;-67
2021/12/15 05:18:53;;;;;;;;;27.00;21.00;;;;;;;;5021364;28;45395;-67
2021/12/15 05:21:18;;;;;;;;;35.67;29.67;;;;;;;;5022059;28;45332;-67
2021/12/15 05:23:47;;;;;;;;;38.00;32.50;;;;;;;;5021282;28;45285;-67
2021/12/15 05:26:12;;;;;;;;;29.67;25.00;;;;;;;;5003860;28;46567;-67
2021/12/15 05:28:37;;;;;;;;;29.33;24.33;;;;;;;;5021056;28;45360;-67
2021/12/15 05:31:02;;;;;;;;;27.67;22.67;;;;;;;;5022069;28;45365;-69
2021/12/15 05:33:28;;;;;;;;;33.00;25.33;;;;;;;;5021693;28;45285;-67
2021/12/15 05:35:54;;;;;;;;;34.33;26.00;;;;;;;;5021350;28;45315;-67
2021/12/15 05:38:21;;;;;;;;;26.00;23.00;;;;;;;;5021077;28;45165;-67
2021/12/15 05:40:46;;;;;;;;;31.33;24.00;;;;;;;;5021667;28;45423;-68
2021/12/15 05:43:12;;;;;;;;;23.33;22.00;;;;;;;;5021731;28;45170;-67
2021/12/15 05:45:39;;;;;;;;;29.00;23.00;;;;;;;;5020759;28;46424;-67
2021/12/15 05:48:05;;;;;;;;;31.33;26.67;;;;;;;;5020167;28;45885;-67
2021/12/15 05:50:31;;;;;;;;;34.00;26.33;;;;;;;;4995146;28;45381;-67
2021/12/15 05:52:56;;;;;;;;;26.67;21.67;;;;;;;;5025340;28;45391;-67
2021/12/15 05:55:22;;;;;;;;;27.67;23.00;;;;;;;;5021618;28;45549;-67
2021/12/15 05:57:48;;;;;;;;;23.00;19.67;;;;;;;;5025351;28;45315;-67
2021/12/15 06:00:16;;;;;;;;;29.67;24.33;;;;;;;;5024126;28;45300;-67
2021/12/15 06:02:41;;;;;;;;;31.00;22.00;;;;;;;;5007322;28;45475;-67
2021/12/15 06:05:07;;;;;;;;;25.00;23.50;;;;;;;;5023495;28;46560;-67
2021/12/15 06:07:32;;;;;;;;;26.33;22.67;;;;;;;;5002858;28;45447;-67
2021/12/15 06:09:58;;;;;;;;;25.33;23.00;;;;;;;;5020643;28;45390;-67
2021/12/15 06:12:23;;;;;;;;;22.00;19.00;;;;;;;;5007157;28;45600;-67
2021/12/15 06:14:48;;;;;;;;;29.33;23.00;;;;;;;;5023277;28;45510;-67
2021/12/15 06:17:14;;;;;;;;;22.67;18.67;;;;;;;;5024258;28;45414;-67
2021/12/15 06:19:39;;;;;;;;;22.67;20.33;;;;;;;;5023510;28;45597;-67
2021/12/15 06:22:05;;;;;;;;;20.00;18.67;;;;;;;;5006588;28;45552;-67
2021/12/15 06:24:31;;;;;;;;;23.67;22.33;;;;;;;;5022802;28;45419;-67
2021/12/15 06:27:01;;;;;;;;;27.67;17.00;;;;;;;;5024298;28;45328;-67
2021/12/15 06:29:29;;;;;;;;;31.00;24.33;;;;;;;;5023279;28;48123;-67
2021/12/15 06:31:54;;;;;;;;;30.67;22.33;;;;;;;;5023130;28;45335;-67
2021/12/15 06:34:19;;;;;;;;;30.67;25.33;;;;;;;;5022299;28;45616;-67
2021/12/15 06:36:45;;;;;;;;;27.33;22.00;;;;;;;;5023388;28;45248;-68
2021/12/15 06:39:10;;;;;;;;;28.33;21.67;;;;;;;;5022823;28;45301;-66
2021/12/15 06:41:35;;;;;;;;;23.33;18.67;;;;;;;;5024439;28;45311;-67
2021/12/15 06:44:00;;;;;;;;;23.33;20.33;;;;;;;;5022899;28;45509;-66
2021/12/15 06:59:54;;;;;;;;;20.67;19.00;;;;;;;;5023023;28;45344;-67
2021/12/15 07:02:19;;;;;;;;;22.33;21.33;;;;;;;;5023721;28;45537;-66
2021/12/15 07:04:45;;;;;;;;;23.33;18.00;;;;;;;;5001478;28;47267;-66
2021/12/15 07:07:10;;;;;;;;;24.67;18.33;;;;;;;;5005983;28;45290;-67
2021/12/15 07:09:35;;;;;;;;;21.67;17.00;;;;;;;;4998786;28;45373;-67
2021/12/15 07:12:01;;;;;;;;;22.00;17.67;;;;;;;;5024000;28;45261;-67
2021/12/15 07:14:27;;;;;;;;;19.33;19.33;;;;;;;;5002729;28;48691;-68
2021/12/15 07:16:55;;;;;;;;;20.00;18.00;;;;;;;;5004966;28;45285;-67
2021/12/15 07:19:32;;;;;;;;;35.00;22.67;;;;;;;;5022294;28;45474;-67
2021/12/15 07:22:28;;;;;;;;;17.67;17.00;;;;;;;;5023719;28;45375;-67
2021/12/15 07:24:54;;;;;;;;;21.33;20.67;;;;;;;;5022046;28;46640;-67
2021/12/15 07:27:19;;;;;;;;;25.33;19.00;;;;;;;;5021688;28;45937;-67
2021/12/15 07:29:44;;;;;;;;;20.00;19.00;;;;;;;;5022732;28;45378;-67
2021/12/15 07:32:09;;;;;;;;;25.33;23.33;;;;;;;;5022316;28;45304;-67
2021/12/15 07:34:34;;;;;;;;;24.33;17.00;;;;;;;;5003850;28;47435;-67
2021/12/15 07:37:06;;;;;;;;;20.67;18.67;;;;;;;;5022835;28;45196;-67
2021/12/15 07:39:31;;;;;;;;;19.00;17.00;;;;;;;;5001718;28;45523;-67
2021/12/15 07:42:09;;;;;;;;;17.67;16.00;;;;;;;;5020985;28;45336;-67
2021/12/15 07:44:35;;;;;;;;;25.33;22.00;;;;;;;;5020843;28;45435;-67
2021/12/15 07:47:00;;;;;;;;;19.00;15.67;;;;;;;;5002075;28;45363;-67
2021/12/15 07:49:26;;;;;;;;;29.33;22.33;;;;;;;;5021626;28;45241;-67
2021/12/15 07:52:00;;;;;;;;;32.67;26.00;;;;;;;;5023586;28;45391;-68
2021/12/15 07:54:27;;;;;;;;;40.00;30.67;;;;;;;;4998811;28;47184;-67
2021/12/15 07:56:52;;;;;;;;;40.00;33.50;;;;;;;;5022336;28;45291;-68
2021/12/15 07:59:17;;;;;;;;;36.25;29.75;;;;;;;;5017653;28;45602;-67
2021/12/15 08:01:42;;;;;;;;;29.00;25.33;;;;;;;;5021346;28;45605;-67
2021/12/15 08:04:08;;;;;;;;;31.00;30.67;;;;;;;;5015773;28;45420;-67
2021/12/15 08:06:33;;;;;;;;;32.00;28.00;;;;;;;;5021204;28;45403;-68
2021/12/15 08:08:59;;;;;;;;;33.00;26.67;;;;;;;;5001000;28;45742;-67
2021/12/15 08:11:24;;;;;;;;;25.33;23.33;;;;;;;;5019729;28;45569;-67
2021/12/15 08:13:49;;;;;;;;;30.67;24.67;;;;;;;;5020239;28;45440;-67
2021/12/15 08:16:15;;;;;;;;;19.00;18.00;;;;;;;;5020356;28;45442;-67
2021/12/15 08:18:40;;;;;;;;;24.67;20.00;;;;;;;;5021443;28;45241;-67
2021/12/15 08:21:06;;;;;;;;;16.00;16.00;;;;;;;;5022286;28;45251;-67
2021/12/15 08:23:31;;;;;;;;;21.67;18.67;;;;;;;;5002806;28;47008;-67
2021/12/15 08:25:57;;;;;;;;;19.33;19.00;;;;;;;;5021518;28;45382;-67
2021/12/15 08:28:23;;;;;;;;;21.00;17.67;;;;;;;;5021421;28;45353;-66
2021/12/15 08:30:48;;;;;;;;;22.67;18.33;;;;;;;;5003813;28;45380;-67
2021/12/15 08:33:18;;;;;;;;;19.00;17.00;;;;;;;;5022135;28;46549;-67
2021/12/15 08:35:46;;;;;;;;;18.33;16.00;;;;;;;;5021580;28;45317;-67
2021/12/15 08:38:12;;;;;;;;;17.33;14.33;;;;;;;;5021764;28;45368;-67
2021/12/15 08:40:38;;;;;;;;;19.33;18.00;;;;;;;;4994031;28;45293;-66
2021/12/15 08:43:06;;;;;;;;;21.67;19.00;;;;;;;;5021675;28;46736;-67
2021/12/15 08:45:32;;;;;;;;;21.33;18.33;;;;;;;;5019683;28;45356;-67
2021/12/15 08:47:58;;;;;;;;;19.00;18.00;;;;;;;;5020614;28;45379;-66
2021/12/15 08:50:26;;;;;;;;;23.33;21.67;;;;;;;;5021355;28;45420;-67
2021/12/15 08:52:51;;;;;;;;;24.33;21.33;;;;;;;;5021571;28;46070;-66
2021/12/15 08:55:16;;;;;;;;;27.00;22.33;;;;;;;;5001702;28;45228;-66
2021/12/15 08:57:47;;;;;;;;;26.67;22.33;;;;;;;;5000489;28;45463;-67
2021/12/15 09:00:13;;;;;;;;;20.33;18.67;;;;;;;;5017485;28;45395;-67
2021/12/15 09:02:38;;;;;;;;;26.33;23.00;;;;;;;;5021631;28;46351;-67
2021/12/15 09:05:04;;;;;;;;;19.00;17.67;;;;;;;;5020742;28;45459;-66
2021/12/15 09:07:29;;;;;;;;;21.67;18.00;;;;;;;;5020508;28;45605;-67
2021/12/15 09:09:54;;;;;;;;;22.67;21.00;;;;;;;;5021640;28;45359;-67
2021/12/15 09:12:20;;;;;;;;;26.00;20.33;;;;;;;;5022074;28;46303;-67
2021/12/15 09:14:45;;;;;;;;;22.67;20.00;;;;;;;;4997708;28;45397;-66
2021/12/15 09:17:11;;;;;;;;;23.33;18.67;;;;;;;;5004239;28;45370;-67
2021/12/15 09:19:36;;;;;;;;;23.00;18.00;;;;;;;;5021469;28;45506;-66
2021/12/15 09:22:02;;;;;;;;;29.33;19.33;;;;;;;;5021699;28;45555;-67
2021/12/15 09:24:27;;;;;;;;;26.33;21.33;;;;;;;;5020225;28;45525;-67
2021/12/15 09:26:54;;;;;;;;;33.33;25.33;;;;;;;;5024841;28;45240;-66
2021/12/15 09:29:19;;;;;;;;;27.67;23.00;;;;;;;;5024867;28;45345;-67
2021/12/15 09:31:45;;;;;;;;;15.00;12.00;;;;;;;;5025451;28;45314;-67
2021/12/15 09:34:14;;;;;;;;;22.67;18.00;;;;;;;;5006735;28;45418;-67
2021/12/15 09:36:40;;;;;;;;;26.00;19.00;;;;;;;;5007195;28;45380;-67
2021/12/15 09:39:08;;;;;;;;;24.33;20.67;;;;;;;;5024488;28;45239;-67
2021/12/15 09:41:34;;;;;;;;;21.00;17.33;;;;;;;;5023786;28;48159;-66
2021/12/15 09:44:06;;;;;;;;;19.67;17.00;;;;;;;;5006399;28;45727;-67
2021/12/15 09:47:04;;;;;;;;;18.00;17.67;;;;;;;;5025335;28;45566;-67
2021/12/15 09:57:48;;;;;;;;;30.00;24.00;;;;;;;;5012452;28;45261;-67
2021/12/15 10:03:03;;;;;;;;;17.33;16.00;;;;;;;;5024963;28;45337;-66
2021/12/15 10:05:41;;;;;;;;;22.00;18.00;;;;;;;;5023399;28;45501;-66
2021/12/15 10:19:18;;;;;;;;;18.67;13.00;;;;;;;;5023836;28;45375;-67
2021/12/15 10:21:55;;;;;;;;;16.00;14.33;;;;;;;;5016356;28;45483;-66
2021/12/15 10:24:31;;;;;;;;;23.33;20.33;;;;;;;;5023045;28;45624;-67
2021/12/15 10:26:58;;;;;;;;;29.67;24.33;;;;;;;;5023018;28;45541;-67
2021/12/15 10:29:23;;;;;;;;;27.67;18.67;;;;;;;;5002886;28;45345;-66
2021/12/15 10:31:59;;;;;;;;;26.33;19.33;;;;;;;;5024977;28;45303;-66
2021/12/15 10:34:25;;;;;;;;;28.00;23.33;;;;;;;;5022971;28;48109;-66
2021/12/15 10:36:50;;;;;;;;;28.00;22.00;;;;;;;;5022058;28;45335;-66
2021/12/15 10:39:15;;;;;;;;;24.67;20.67;;;;;;;;5022970;28;45435;-66
2021/12/15 10:41:42;;;;;;;;;19.00;17.00;;;;;;;;5024846;28;45241;-68
2021/12/15 10:44:17;;;;;;;;;22.67;18.67;;;;;;;;5023346;28;45487;-67
2021/12/15 10:46:42;;;;;;;;;15.33;11.33;;;;;;;;5024048;28;45390;-67
2021/12/15 10:49:16;;;;;;;;;18.33;18.33;;;;;;;;5023387;28;45438;-67
2021/12/15 10:51:47;;;;;;;;;21.00;18.00;;;;;;;;5024463;28;45423;-68
2021/12/15 10:54:12;;;;;;;;;19.33;18.00;;;;;;;;5021594;28;45374;-67
2021/12/15 10:56:39;;;;;;;;;21.33;18.67;;;;;;;;5023837;28;45367;-68
2021/12/15 10:59:07;;;;;;;;;23.67;18.67;;;;;;;;5023259;28;45466;-67
2021/12/15 11:01:35;;;;;;;;;22.67;21.00;;;;;;;;5024141;28;45225;-67
2021/12/15 11:04:02;;;;;;;;;25.33;17.33;;;;;;;;5022734;28;45370;-67
2021/12/15 11:06:33;;;;;;;;;23.33;20.00;;;;;;;;5023501;28;45339;-67
2021/12/15 11:09:10;;;;;;;;;22.00;20.00;;;;;;;;5022983;28;45366;-67
2021/12/15 11:11:35;;;;;;;;;19.33;18.67;;;;;;;;5005801;28;45514;-67
2021/12/15 11:14:21;;;;;;;;;18.00;16.00;;;;;;;;5022441;28;46468;-67
2021/12/15 11:16:46;;;;;;;;;28.33;21.33;;;;;;;;5022175;28;45257;-67
2021/12/15 11:19:31;;;;;;;;;21.33;18.33;;;;;;;;5022684;28;45356;-67
2021/12/15 11:21:56;;;;;;;;;19.67;17.67;;;;;;;;5016830;28;45546;-67
2021/12/15 11:24:23;;;;;;;;;19.33;18.00;;;;;;;;5023964;28;46748;-66
2021/12/15 11:27:08;;;;;;;;;21.33;16.00;;;;;;;;5025692;28;45307;-65
2021/12/15 11:29:43;;;;;;;;;17.67;17.00;;;;;;;;5022990;28;45448;-67
2021/12/15 11:32:28;;;;;;;;;23.33;22.00;;;;;;;;5024277;28;45525;-67
2021/12/15 11:35:02;;;;;;;;;17.00;15.33;;;;;;;;5021900;28;45316;-67
2021/12/15 11:37:45;;;;;;;;;17.67;17.67;;;;;;;;5023126;28;45509;-67
2021/12/15 11:40:11;;;;;;;;;19.33;17.33;;;;;;;;5022276;28;45361;-67
2021/12/15 11:42:38;;;;;;;;;26.00;21.00;;;;;;;;5023521;28;45676;-67
2021/12/15 11:45:05;;;;;;;;;31.33;26.00;;;;;;;;4997221;28;47167;-67
2021/12/15 11:47:33;;;;;;;;;16.00;11.33;;;;;;;;5021181;28;45322;-67
2021/12/15 11:50:05;;;;;;;;;14.00;12.33;;;;;;;;5022357;28;45707;-67
2021/12/15 11:52:37;;;;;;;;;65.00;49.50;;;;;;;;5022729;28;45248;-67
2021/12/15 11:55:03;;;;;;;;;24.67;17.33;;;;;;;;5019808;28;46848;-67
2021/12/15 11:57:29;;;;;;;;;22.00;19.00;;;;;;;;5022715;28;45224;-67
2021/12/15 11:59:57;;;;;;;;;17.00;16.33;;;;;;;;5021592;28;45238;-67
2021/12/15 12:02:24;;;;;;;;;20.67;16.67;;;;;;;;5023686;28;45465;-67
2021/12/15 12:04:51;;;;;;;;;13.33;12.00;;;;;;;;5021505;28;46075;-67
2021/12/15 12:07:34;;;;;;;;;19.67;16.00;;;;;;;;5004514;28;45765;-67
2021/12/15 12:10:02;;;;;;;;;17.00;14.67;;;;;;;;5022121;28;45426;-67
2021/12/15 12:12:34;;;;;;;;;10.67;10.67;;;;;;;;5005345;28;45513;-67
2021/12/15 12:14:59;;;;;;;;;18.00;16.33;;;;;;;;5021880;28;45412;-67
2021/12/15 12:17:30;;;;;;;;;14.33;13.00;;;;;;;;5024310;28;45258;-67
2021/12/15 12:19:57;;;;;;;;;14.67;12.00;;;;;;;;5021639;28;45508;-68
2021/12/15 12:22:24;;;;;;;;;12.00;10.00;;;;;;;;5022266;28;45432;-68
2021/12/15 12:24:52;;;;;;;;;10.67;8.00;;;;;;;;5020698;28;45300;-67
2021/12/15 12:27:18;;;;;;;;;11.67;8.33;;;;;;;;5022319;28;45461;-67
2021/12/15 12:29:43;;;;;;;;;9.00;8.00;;;;;;;;5004562;28;45412;-67
2021/12/15 12:32:08;;;;;;;;;8.33;7.67;;;;;;;;5022890;28;45470;-67
2021/12/15 12:34:34;;;;;;;;;10.00;10.00;;;;;;;;5021530;28;46846;-67
2021/12/15 12:36:59;;;;;;;;;17.33;14.33;;;;;;;;5022037;28;45404;-67
2021/12/15 12:39:30;;;;;;;;;12.67;10.33;;;;;;;;5019305;28;46377;-67
2021/12/15 12:41:55;;;;;;;;;18.00;13.00;;;;;;;;5021178;28;45353;-67
2021/12/15 12:44:22;;;;;;;;;10.00;7.33;;;;;;;;5020679;28;45324;-67
2021/12/15 12:46:56;;;;;;;;;12.67;11.67;;;;;;;;5014566;28;45343;-67
2021/12/15 12:59:22;;;;;;;;;19.67;13.67;;;;;;;;5021769;28;45245;-66
2021/12/15 13:00:50;;;;;;;;;18.33;14.00;;;;;;;;5021654;28;45542;-67
2021/12/15 13:03:18;;;;;;;;;21.00;17.00;;;;;;;;5025624;28;45282;-67
2021/12/15 13:05:45;;;;;;;;;20.00;17.00;;;;;;;;5023842;28;46170;-67
2021/12/15 13:08:10;;;;;;;;;11.33;11.33;;;;;;;;5024679;28;45430;-67
2021/12/15 13:10:47;;;;;;;;;12.00;12.00;;;;;;;;5000836;28;45372;-67
2021/12/15 13:13:14;;;;;;;;;14.00;10.00;;;;;;;;5025806;28;45435;-67
2021/12/15 13:15:40;;;;;;;;;17.00;17.00;;;;;;;;5023918;28;45633;-67
2021/12/15 13:18:11;;;;;;;;;17.33;16.00;;;;;;;;5007122;28;45789;-68
2021/12/15 13:20:37;;;;;;;;;13.67;11.00;;;;;;;;5002441;28;45642;-67
2021/12/15 13:31:05;;;;;;;;;11.67;11.67;;;;;;;;5025072;28;45447;-66
2021/12/15 13:33:31;;;;;;;;;14.33;12.00;;;;;;;;5006929;28;45380;-67
2021/12/15 13:35:58;;;;;;;;;21.33;18.67;;;;;;;;5024909;28;46297;-67
2021/12/15 13:38:32;;;;;;;;;27.00;20.33;;;;;;;;5024189;28;46029;-67
2021/12/15 13:40:59;;;;;;;;;19.00;16.00;;;;;;;;5024506;28;45474;-68
2021/12/15 13:43:37;;;;;;;;;25.33;20.33;;;;;;;;5024538;28;45434;-67
2021/12/15 13:46:05;;;;;;;;;13.00;11.33;;;;;;;;5024348;28;45261;-67
2021/12/15 13:48:49;;;;;;;;;10.67;10.67;;;;;;;;5006274;28;46136;-67
2021/12/15 13:51:14;;;;;;;;;14.00;11.67;;;;;;;;5024939;28;45466;-67
2021/12/15 13:53:39;;;;;;;;;10.33;10.33;;;;;;;;5022345;28;45431;-67
2021/12/15 13:56:04;;;;;;;;;6.67;6.67;;;;;;;;5023063;28;47488;-67
2021/12/15 13:58:31;;;;;;;;;9.67;9.67;;;;;;;;5023740;28;45316;-67
2021/12/15 14:00:58;;;;;;;;;7.67;5.00;;;;;;;;5024758;28;45310;-67
2021/12/15 14:03:23;;;;;;;;;10.00;8.67;;;;;;;;5006682;28;45498;-67
2021/12/15 14:05:53;;;;;;;;;10.67;10.33;;;;;;;;5006326;28;47116;-67
2021/12/15 14:08:20;;;;;;;;;13.00;13.00;;;;;;;;5023306;28;45364;-67
2021/12/15 14:10:48;;;;;;;;;18.33;15.33;;;;;;;;5024167;28;45501;-67
2021/12/15 14:13:14;;;;;;;;;13.67;13.33;;;;;;;;5023532;28;45448;-68
2021/12/15 14:15:42;;;;;;;;;18.67;14.67;;;;;;;;5023269;28;46053;-66
2021/12/15 14:18:10;;;;;;;;;18.33;12.33;;;;;;;;5024714;28;45414;-66
2021/12/15 14:20:37;;;;;;;;;14.67;13.67;;;;;;;;5001289;28;45456;-66
2021/12/15 14:23:04;;;;;;;;;11.67;11.00;;;;;;;;5023142;28;45403;-66
2021/12/15 14:25:34;;;;;;;;;25.33;16.67;;;;;;;;5023280;28;46272;-66
2021/12/15 14:28:07;;;;;;;;;22.00;17.00;;;;;;;;5024408;28;45474;-66
2021/12/15 14:30:32;;;;;;;;;15.33;12.00;;;;;;;;5023555;28;45466;-67
2021/12/15 14:32:57;;;;;;;;;16.67;14.33;;;;;;;;5024865;28;45283;-66
2021/12/15 14:35:24;;;;;;;;;15.00;12.00;;;;;;;;5023212;28;45365;-66
2021/12/15 14:37:49;;;;;;;;;16.00;15.00;;;;;;;;5024304;28;45586;-67
2021/12/15 14:40:15;;;;;;;;;10.67;10.67;;;;;;;;5005403;28;45395;-66
2021/12/15 14:42:42;;;;;;;;;12.00;10.67;;;;;;;;5024549;28;45372;-67
2021/12/15 14:45:09;;;;;;;;;14.33;11.67;;;;;;;;5022863;28;46201;-67
2021/12/15 14:47:35;;;;;;;;;14.00;13.00;;;;;;;;5024296;28;45353;-68
2021/12/15 14:50:21;;;;;;;;;16.67;16.67;;;;;;;;5023263;28;45540;-68
2021/12/15 14:52:48;;;;;;;;;16.00;14.00;;;;;;;;5022154;28;45581;-68
2021/12/15 14:55:14;;;;;;;;;27.67;20.00;;;;;;;;5015053;28;47220;-68
2021/12/15 14:57:39;;;;;;;;;22.67;15.67;;;;;;;;5006439;28;45494;-67
2021/12/15 15:00:10;;;;;;;;;17.33;16.67;;;;;;;;5005328;28;45323;-68
2021/12/15 15:02:37;;;;;;;;;18.00;14.33;;;;;;;;5024607;28;45376;-68
2021/12/15 15:05:07;;;;;;;;;14.00;13.67;;;;;;;;5022710;28;45390;-68
2021/12/15 15:07:35;;;;;;;;;12.33;12.33;;;;;;;;5021860;28;45931;-68
2021/12/15 15:10:01;;;;;;;;;15.00;13.00;;;;;;;;4999535;28;45574;-68
2021/12/15 15:12:28;;;;;;;;;26.33;21.67;;;;;;;;5023965;28;45436;-68
2021/12/15 15:14:59;;;;;;;;;16.33;16.33;;;;;;;;5022420;28;45502;-70
2021/12/15 15:17:29;;;;;;;;;19.33;16.67;;;;;;;;5023393;28;45404;-68
2021/12/15 15:19:56;;;;;;;;;16.33;15.00;;;;;;;;5022880;28;45371;-67
2021/12/15 15:22:28;;;;;;;;;20.33;17.33;;;;;;;;5023872;28;45208;-68
2021/12/15 15:24:54;;;;;;;;;19.67;18.00;;;;;;;;5020943;28;45356;-68
2021/12/15 15:27:20;;;;;;;;;31.33;26.67;;;;;;;;5022232;28;45413;-67
2021/12/15 15:29:47;;;;;;;;;19.00;17.33;;;;;;;;5002564;28;45337;-67
2021/12/15 15:32:15;;;;;;;;;12.00;12.00;;;;;;;;5022878;28;45624;-67
2021/12/15 15:34:42;;;;;;;;;13.00;11.33;;;;;;;;5022429;28;45415;-67
2021/12/15 15:37:16;;;;;;;;;14.00;14.00;;;;;;;;5005094;28;45340;-67
2021/12/15 15:39:42;;;;;;;;;15.67;12.33;;;;;;;;5022730;28;45897;-68
2021/12/15 15:42:07;;;;;;;;;16.00;11.00;;;;;;;;5023816;28;45351;-67
2021/12/15 15:44:34;;;;;;;;;13.00;11.00;;;;;;;;5022426;28;45911;-68
2021/12/15 15:46:59;;;;;;;;;9.00;9.00;;;;;;;;5023325;28;45317;-67